sensor_id;sensor_type;location;lat;lon;timestamp;P1;durP1;ratioP1;P2;durP2;ratioP2
56680;SDS011;42558;52.388;13.390;2023-05-07T00:00:18;30.97;;;20.71;;
56680;SDS011;42558;52.388;13.390;2023-05-07T00:02:46;31.35;;;21.09;;
56680;SDS011;42558;52.388;13.390;2023-05-07T00:05:15;28.69;;;20.33;;
56680;SDS011;42558;52.388;13.390;2023-05-07T00:07:43;28.12;;;18.43;;
56680;SDS011;42558;52.388;13.390;2023-05-07T00:10:12;31.92;;;21.09;;
56680;SDS011;42558;52.388;13.390;2023-05-07T00:12:41;25.27;;;18.81;;
56680;SDS011;42558;52.388;13.390;2023-05-07T00:15:09;33.25;;;19.76;;
56680;SDS011;42558;52.388;13.390;2023-05-07T00:17:37;26.98;;;19.57;;
56680;SDS011;42558;52.388;13.390;2023-05-07T00:20:06;27.55;;;18.62;;
56680;SDS011;42558;52.388;13.390;2023-05-07T00:22:34;28.50;;;20.14;;
56680;SDS011;42558;52.388;13.390;2023-05-07T00:25:03;32.49;;;19.00;;
56680;SDS011;42558;52.388;13.390;2023-05-07T00:27:31;29.64;;;19.57;;
56680;SDS011;42558;52.388;13.390;2023-05-07T00:29:59;24.89;;;15.77;;
56680;SDS011;42558;52.388;13.390;2023-05-07T00:32:28;30.02;;;20.33;;
56680;SDS011;42558;52.388;13.390;2023-05-07T00:34:56;28.88;;;19.19;;
56680;SDS011;42558;52.388;13.390;2023-05-07T00:37:25;25.84;;;17.48;;
56680;SDS011;42558;52.388;13.390;2023-05-07T00:39:53;28.50;;;18.43;;
56680;SDS011;42558;52.388;13.390;2023-05-07T00:42:22;29.45;;;18.43;;
56680;SDS011;42558;52.388;13.390;2023-05-07T00:44:50;27.74;;;20.14;;
56680;SDS011;42558;52.388;13.390;2023-05-07T00:47:19;26.79;;;18.62;;
56680;SDS011;42558;52.388;13.390;2023-05-07T00:49:48;26.03;;;17.10;;
56680;SDS011;42558;52.388;13.390;2023-05-07T00:52:17;23.18;;;16.15;;
56680;SDS011;42558;52.388;13.390;2023-05-07T00:54:48;22.04;;;15.96;;
56680;SDS011;42558;52.388;13.390;2023-05-07T00:57:16;23.56;;;16.34;;
56680;SDS011;42558;52.388;13.390;2023-05-07T00:59:44;22.04;;;16.72;;
56680;SDS011;42558;52.388;13.390;2023-05-07T01:02:13;23.75;;;16.72;;
56680;SDS011;42558;52.388;13.390;2023-05-07T01:04:41;23.56;;;16.72;;
56680;SDS011;42558;52.388;13.390;2023-05-07T01:07:10;21.09;;;14.63;;
56680;SDS011;42558;52.388;13.390;2023-05-07T01:09:39;24.89;;;17.67;;
56680;SDS011;42558;52.388;13.390;2023-05-07T01:12:08;20.71;;;14.44;;
56680;SDS011;42558;52.388;13.390;2023-05-07T01:14:43;20.90;;;15.01;;
56680;SDS011;42558;52.388;13.390;2023-05-07T01:17:11;22.61;;;15.01;;
56680;SDS011;42558;52.388;13.390;2023-05-07T01:19:40;22.80;;;16.15;;
56680;SDS011;42558;52.388;13.390;2023-05-07T01:22:10;21.85;;;15.01;;
56680;SDS011;42558;52.388;13.390;2023-05-07T01:24:40;20.33;;;14.44;;
56680;SDS011;42558;52.388;13.390;2023-05-07T01:27:08;23.56;;;16.15;;
56680;SDS011;42558;52.388;13.390;2023-05-07T01:29:36;22.61;;;15.96;;
56680;SDS011;42558;52.388;13.390;2023-05-07T01:32:05;21.47;;;15.77;;
56680;SDS011;42558;52.388;13.390;2023-05-07T01:34:34;23.18;;;15.58;;
56680;SDS011;42558;52.388;13.390;2023-05-07T01:37:06;22.61;;;12.35;;
56680;SDS011;42558;52.388;13.390;2023-05-07T01:39:39;24.13;;;17.29;;
56680;SDS011;42558;52.388;13.390;2023-05-07T01:42:10;25.27;;;16.72;;
56680;SDS011;42558;52.388;13.390;2023-05-07T01:44:47;20.52;;;15.77;;
56680;SDS011;42558;52.388;13.390;2023-05-07T01:47:17;25.27;;;17.48;;
56680;SDS011;42558;52.388;13.390;2023-05-07T01:49:48;22.61;;;16.53;;
56680;SDS011;42558;52.388;13.390;2023-05-07T01:52:18;22.61;;;17.29;;
56680;SDS011;42558;52.388;13.390;2023-05-07T01:54:48;23.75;;;18.62;;
56680;SDS011;42558;52.388;13.390;2023-05-07T01:57:17;22.61;;;17.48;;
56680;SDS011;42558;52.388;13.390;2023-05-07T01:59:47;25.08;;;17.10;;
56680;SDS011;42558;52.388;13.390;2023-05-07T02:02:17;27.17;;;17.67;;
56680;SDS011;42558;52.388;13.390;2023-05-07T02:04:47;23.94;;;17.29;;
56680;SDS011;42558;52.388;13.390;2023-05-07T02:07:17;23.75;;;17.67;;
56680;SDS011;42558;52.388;13.390;2023-05-07T02:09:47;20.52;;;15.96;;
56680;SDS011;42558;52.388;13.390;2023-05-07T02:12:17;22.04;;;15.96;;
56680;SDS011;42558;52.388;13.390;2023-05-07T02:14:47;23.56;;;15.39;;
56680;SDS011;42558;52.388;13.390;2023-05-07T02:17:16;20.71;;;16.53;;
56680;SDS011;42558;52.388;13.390;2023-05-07T02:19:46;21.47;;;15.96;;
56680;SDS011;42558;52.388;13.390;2023-05-07T02:22:17;20.71;;;16.53;;
56680;SDS011;42558;52.388;13.390;2023-05-07T02:24:44;23.75;;;16.15;;
56680;SDS011;42558;52.388;13.390;2023-05-07T02:27:13;26.03;;;18.05;;
56680;SDS011;42558;52.388;13.390;2023-05-07T02:29:41;24.32;;;18.05;;
56680;SDS011;42558;52.388;13.390;2023-05-07T02:32:10;25.84;;;16.91;;
56680;SDS011;42558;52.388;13.390;2023-05-07T02:34:38;23.75;;;17.29;;
56680;SDS011;42558;52.388;13.390;2023-05-07T02:37:07;26.98;;;17.10;;
56680;SDS011;42558;52.388;13.390;2023-05-07T02:39:35;22.23;;;17.48;;
56680;SDS011;42558;52.388;13.390;2023-05-07T02:42:03;20.14;;;15.01;;
56680;SDS011;42558;52.388;13.390;2023-05-07T02:44:35;25.46;;;17.29;;
56680;SDS011;42558;52.388;13.390;2023-05-07T02:47:03;27.55;;;18.24;;
56680;SDS011;42558;52.388;13.390;2023-05-07T02:49:32;24.13;;;17.10;;
56680;SDS011;42558;52.388;13.390;2023-05-07T02:52:00;23.18;;;15.58;;
56680;SDS011;42558;52.388;13.390;2023-05-07T02:54:29;29.26;;;17.10;;
56680;SDS011;42558;52.388;13.390;2023-05-07T02:56:57;22.42;;;14.44;;
56680;SDS011;42558;52.388;13.390;2023-05-07T02:59:25;25.27;;;17.29;;
56680;SDS011;42558;52.388;13.390;2023-05-07T03:01:54;26.03;;;18.43;;
56680;SDS011;42558;52.388;13.390;2023-05-07T03:04:22;23.37;;;17.86;;
56680;SDS011;42558;52.388;13.390;2023-05-07T03:06:51;24.51;;;16.91;;
56680;SDS011;42558;52.388;13.390;2023-05-07T03:09:19;25.08;;;16.91;;
56680;SDS011;42558;52.388;13.390;2023-05-07T03:11:48;22.80;;;15.01;;
56680;SDS011;42558;52.388;13.390;2023-05-07T03:14:16;20.52;;;14.82;;
56680;SDS011;42558;52.388;13.390;2023-05-07T03:16:45;27.17;;;17.10;;
56680;SDS011;42558;52.388;13.390;2023-05-07T03:19:13;23.75;;;18.24;;
56680;SDS011;42558;52.388;13.390;2023-05-07T03:21:42;23.56;;;17.86;;
56680;SDS011;42558;52.388;13.390;2023-05-07T03:24:10;23.94;;;17.29;;
56680;SDS011;42558;52.388;13.390;2023-05-07T03:26:38;24.32;;;17.86;;
56680;SDS011;42558;52.388;13.390;2023-05-07T03:29:07;27.93;;;16.53;;
56680;SDS011;42558;52.388;13.390;2023-05-07T03:31:35;21.47;;;15.01;;
56680;SDS011;42558;52.388;13.390;2023-05-07T03:34:04;26.79;;;17.67;;
56680;SDS011;42558;52.388;13.390;2023-05-07T03:36:32;24.70;;;17.86;;
56680;SDS011;42558;52.388;13.390;2023-05-07T03:39:01;26.98;;;17.86;;
56680;SDS011;42558;52.388;13.390;2023-05-07T03:41:29;23.75;;;17.67;;
56680;SDS011;42558;52.388;13.390;2023-05-07T03:43:58;22.61;;;17.10;;
56680;SDS011;42558;52.388;13.390;2023-05-07T03:46:26;23.75;;;17.48;;
56680;SDS011;42558;52.388;13.390;2023-05-07T03:48:54;21.47;;;15.77;;
56680;SDS011;42558;52.388;13.390;2023-05-07T03:51:23;26.98;;;18.24;;
56680;SDS011;42558;52.388;13.390;2023-05-07T03:53:51;25.08;;;18.81;;
56680;SDS011;42558;52.388;13.390;2023-05-07T03:56:26;25.27;;;17.86;;
56680;SDS011;42558;52.388;13.390;2023-05-07T03:58:57;23.37;;;17.67;;
56680;SDS011;42558;52.388;13.390;2023-05-07T04:01:27;22.80;;;16.72;;
56680;SDS011;42558;52.388;13.390;2023-05-07T04:03:57;23.18;;;16.34;;
56680;SDS011;42558;52.388;13.390;2023-05-07T04:06:27;22.80;;;16.91;;
56680;SDS011;42558;52.388;13.390;2023-05-07T04:08:57;23.18;;;14.82;;
56680;SDS011;42558;52.388;13.390;2023-05-07T04:11:27;21.47;;;14.63;;
56680;SDS011;42558;52.388;13.390;2023-05-07T04:13:57;22.61;;;16.53;;
56680;SDS011;42558;52.388;13.390;2023-05-07T04:16:27;23.75;;;15.77;;
56680;SDS011;42558;52.388;13.390;2023-05-07T04:18:57;22.42;;;15.77;;
56680;SDS011;42558;52.388;13.390;2023-05-07T04:21:27;22.99;;;15.96;;
56680;SDS011;42558;52.388;13.390;2023-05-07T04:23:56;22.80;;;16.34;;
56680;SDS011;42558;52.388;13.390;2023-05-07T04:26:26;20.90;;;14.82;;
56680;SDS011;42558;52.388;13.390;2023-05-07T04:28:57;20.71;;;14.82;;
56680;SDS011;42558;52.388;13.390;2023-05-07T04:31:28;21.47;;;15.77;;
56680;SDS011;42558;52.388;13.390;2023-05-07T04:33:58;29.64;;;16.15;;
56680;SDS011;42558;52.388;13.390;2023-05-07T04:36:28;23.75;;;16.15;;
56680;SDS011;42558;52.388;13.390;2023-05-07T04:38:58;22.99;;;16.34;;
56680;SDS011;42558;52.388;13.390;2023-05-07T04:41:28;24.13;;;16.72;;
56680;SDS011;42558;52.388;13.390;2023-05-07T04:43:58;21.28;;;15.01;;
56680;SDS011;42558;52.388;13.390;2023-05-07T04:46:28;20.90;;;16.34;;
56680;SDS011;42558;52.388;13.390;2023-05-07T04:48:58;21.85;;;16.53;;
56680;SDS011;42558;52.388;13.390;2023-05-07T04:51:28;19.19;;;14.06;;
56680;SDS011;42558;52.388;13.390;2023-05-07T04:53:58;22.61;;;16.34;;
56680;SDS011;42558;52.388;13.390;2023-05-07T04:56:28;20.71;;;15.20;;
56680;SDS011;42558;52.388;13.390;2023-05-07T04:59:01;17.10;;;12.73;;
56680;SDS011;42558;52.388;13.390;2023-05-07T05:01:31;22.99;;;16.15;;
56680;SDS011;42558;52.388;13.390;2023-05-07T05:04:01;18.05;;;14.06;;
56680;SDS011;42558;52.388;13.390;2023-05-07T05:06:31;18.62;;;13.11;;
56680;SDS011;42558;52.388;13.390;2023-05-07T05:09:01;21.66;;;16.34;;
56680;SDS011;42558;52.388;13.390;2023-05-07T05:11:31;24.13;;;15.96;;
56680;SDS011;42558;52.388;13.390;2023-05-07T05:14:01;20.33;;;15.01;;
56680;SDS011;42558;52.388;13.390;2023-05-07T05:16:31;21.09;;;14.25;;
56680;SDS011;42558;52.388;13.390;2023-05-07T05:19:02;20.14;;;13.49;;
56680;SDS011;42558;52.388;13.390;2023-05-07T05:21:32;20.52;;;12.35;;
56680;SDS011;42558;52.388;13.390;2023-05-07T05:24:02;21.28;;;12.73;;
56680;SDS011;42558;52.388;13.390;2023-05-07T05:26:32;16.91;;;12.16;;
56680;SDS011;42558;52.388;13.390;2023-05-07T05:29:01;17.29;;;11.59;;
56680;SDS011;42558;52.388;13.390;2023-05-07T05:31:31;21.09;;;12.92;;
56680;SDS011;42558;52.388;13.390;2023-05-07T05:34:02;19.38;;;12.73;;
56680;SDS011;42558;52.388;13.390;2023-05-07T05:36:33;18.43;;;12.73;;
56680;SDS011;42558;52.388;13.390;2023-05-07T05:39:03;20.71;;;12.73;;
56680;SDS011;42558;52.388;13.390;2023-05-07T05:41:33;17.67;;;12.73;;
56680;SDS011;42558;52.388;13.390;2023-05-07T05:44:03;19.19;;;13.11;;
56680;SDS011;42558;52.388;13.390;2023-05-07T05:46:33;17.86;;;12.92;;
56680;SDS011;42558;52.388;13.390;2023-05-07T05:49:05;18.24;;;11.59;;
56680;SDS011;42558;52.388;13.390;2023-05-07T05:51:35;17.48;;;12.35;;
56680;SDS011;42558;52.388;13.390;2023-05-07T05:54:03;19.00;;;11.21;;
56680;SDS011;42558;52.388;13.390;2023-05-07T05:56:32;17.10;;;11.78;;
56680;SDS011;42558;52.388;13.390;2023-05-07T05:59:00;16.53;;;11.40;;
56680;SDS011;42558;52.388;13.390;2023-05-07T06:01:29;18.24;;;11.78;;
56680;SDS011;42558;52.388;13.390;2023-05-07T06:03:57;15.58;;;11.02;;
56680;SDS011;42558;52.388;13.390;2023-05-07T06:06:26;18.81;;;12.16;;
56680;SDS011;42558;52.388;13.390;2023-05-07T06:08:54;18.43;;;12.16;;
56680;SDS011;42558;52.388;13.390;2023-05-07T06:11:22;15.96;;;11.21;;
56680;SDS011;42558;52.388;13.390;2023-05-07T06:13:51;15.01;;;9.88;;
56680;SDS011;42558;52.388;13.390;2023-05-07T06:16:19;17.29;;;11.21;;
56680;SDS011;42558;52.388;13.390;2023-05-07T06:18:48;17.10;;;9.31;;
56680;SDS011;42558;52.388;13.390;2023-05-07T06:21:16;16.15;;;10.64;;
56680;SDS011;42558;52.388;13.390;2023-05-07T06:23:44;16.91;;;10.64;;
56680;SDS011;42558;52.388;13.390;2023-05-07T06:26:13;16.53;;;9.88;;
56680;SDS011;42558;52.388;13.390;2023-05-07T06:28:41;16.15;;;10.64;;
56680;SDS011;42558;52.388;13.390;2023-05-07T06:31:13;11.97;;;8.74;;
56680;SDS011;42558;52.388;13.390;2023-05-07T06:33:44;15.01;;;10.26;;
56680;SDS011;42558;52.388;13.390;2023-05-07T06:36:14;16.72;;;11.40;;
56680;SDS011;42558;52.388;13.390;2023-05-07T06:38:45;15.58;;;9.88;;
56680;SDS011;42558;52.388;13.390;2023-05-07T06:41:14;15.58;;;9.69;;
56680;SDS011;42558;52.388;13.390;2023-05-07T06:43:44;16.15;;;11.40;;
56680;SDS011;42558;52.388;13.390;2023-05-07T06:46:15;16.15;;;11.02;;
56680;SDS011;42558;52.388;13.390;2023-05-07T06:48:45;15.01;;;9.69;;
56680;SDS011;42558;52.388;13.390;2023-05-07T06:51:15;14.63;;;10.45;;
56680;SDS011;42558;52.388;13.390;2023-05-07T06:53:45;15.58;;;10.83;;
56680;SDS011;42558;52.388;13.390;2023-05-07T06:56:15;20.71;;;10.83;;
56680;SDS011;42558;52.388;13.390;2023-05-07T06:58:45;16.34;;;11.59;;
56680;SDS011;42558;52.388;13.390;2023-05-07T07:01:15;16.34;;;11.21;;
56680;SDS011;42558;52.388;13.390;2023-05-07T07:03:44;15.01;;;11.02;;
56680;SDS011;42558;52.388;13.390;2023-05-07T07:06:14;17.10;;;11.59;;
56680;SDS011;42558;52.388;13.390;2023-05-07T07:08:44;19.19;;;11.21;;
56680;SDS011;42558;52.388;13.390;2023-05-07T07:11:15;17.10;;;11.40;;
56680;SDS011;42558;52.388;13.390;2023-05-07T07:13:45;16.91;;;10.83;;
56680;SDS011;42558;52.388;13.390;2023-05-07T07:16:14;16.91;;;11.02;;
56680;SDS011;42558;52.388;13.390;2023-05-07T07:18:44;16.34;;;11.21;;
56680;SDS011;42558;52.388;13.390;2023-05-07T07:21:14;15.20;;;9.69;;
56680;SDS011;42558;52.388;13.390;2023-05-07T07:23:44;16.15;;;11.02;;
56680;SDS011;42558;52.388;13.390;2023-05-07T07:26:14;15.01;;;9.69;;
56680;SDS011;42558;52.388;13.390;2023-05-07T07:28:47;13.30;;;9.50;;
56680;SDS011;42558;52.388;13.390;2023-05-07T07:31:17;16.15;;;10.45;;
56680;SDS011;42558;52.388;13.390;2023-05-07T07:33:47;13.11;;;8.93;;
56680;SDS011;42558;52.388;13.390;2023-05-07T07:36:17;19.95;;;9.31;;
56680;SDS011;42558;52.388;13.390;2023-05-07T07:38:47;13.11;;;9.12;;
56680;SDS011;42558;52.388;13.390;2023-05-07T07:41:16;14.63;;;9.50;;
56680;SDS011;42558;52.388;13.390;2023-05-07T07:43:44;13.11;;;8.74;;
56680;SDS011;42558;52.388;13.390;2023-05-07T07:46:16;12.16;;;8.36;;
56680;SDS011;42558;52.388;13.390;2023-05-07T07:48:44;14.44;;;8.17;;
56680;SDS011;42558;52.388;13.390;2023-05-07T07:51:12;14.63;;;8.55;;
56680;SDS011;42558;52.388;13.390;2023-05-07T07:53:41;11.59;;;7.60;;
56680;SDS011;42558;52.388;13.390;2023-05-07T07:56:09;10.26;;;7.41;;
56680;SDS011;42558;52.388;13.390;2023-05-07T07:58:38;11.97;;;7.79;;
56680;SDS011;42558;52.388;13.390;2023-05-07T08:01:07;12.54;;;7.98;;
56680;SDS011;42558;52.388;13.390;2023-05-07T08:03:34;15.20;;;7.79;;
56680;SDS011;42558;52.388;13.390;2023-05-07T08:06:03;12.35;;;8.36;;
56680;SDS011;42558;52.388;13.390;2023-05-07T08:08:31;13.11;;;8.17;;
56680;SDS011;42558;52.388;13.390;2023-05-07T08:11:00;10.64;;;7.22;;
56680;SDS011;42558;52.388;13.390;2023-05-07T08:13:28;11.78;;;7.41;;
56680;SDS011;42558;52.388;13.390;2023-05-07T08:15:57;14.06;;;6.84;;
56680;SDS011;42558;52.388;13.390;2023-05-07T08:18:25;10.26;;;6.65;;
56680;SDS011;42558;52.388;13.390;2023-05-07T08:20:57;11.97;;;7.03;;
56680;SDS011;42558;52.388;13.390;2023-05-07T08:23:27;11.02;;;7.22;;
56680;SDS011;42558;52.388;13.390;2023-05-07T08:25:57;11.21;;;6.27;;
56680;SDS011;42558;52.388;13.390;2023-05-07T08:28:27;13.49;;;6.84;;
56680;SDS011;42558;52.388;13.390;2023-05-07T08:30:57;11.59;;;6.65;;
56680;SDS011;42558;52.388;13.390;2023-05-07T08:33:29;9.12;;;6.27;;
56680;SDS011;42558;52.388;13.390;2023-05-07T08:35:59;11.59;;;7.22;;
56680;SDS011;42558;52.388;13.390;2023-05-07T08:38:29;10.45;;;5.89;;
56680;SDS011;42558;52.388;13.390;2023-05-07T08:40:58;10.26;;;6.08;;
56680;SDS011;42558;52.388;13.390;2023-05-07T08:43:30;12.54;;;7.22;;
56680;SDS011;42558;52.388;13.390;2023-05-07T08:46:03;9.69;;;5.89;;
56680;SDS011;42558;52.388;13.390;2023-05-07T08:48:38;9.69;;;6.46;;
56680;SDS011;42558;52.388;13.390;2023-05-07T08:51:17;11.02;;;6.08;;
56680;SDS011;42558;52.388;13.390;2023-05-07T08:53:49;11.59;;;6.27;;
56680;SDS011;42558;52.388;13.390;2023-05-07T08:56:19;9.12;;;5.32;;
56680;SDS011;42558;52.388;13.390;2023-05-07T08:58:51;9.69;;;6.08;;
56680;SDS011;42558;52.388;13.390;2023-05-07T09:01:20;9.12;;;5.70;;
56680;SDS011;42558;52.388;13.390;2023-05-07T09:03:51;9.12;;;5.13;;
56680;SDS011;42558;52.388;13.390;2023-05-07T09:06:22;9.31;;;5.13;;
56680;SDS011;42558;52.388;13.390;2023-05-07T09:08:54;8.17;;;4.56;;
56680;SDS011;42558;52.388;13.390;2023-05-07T09:11:24;8.55;;;5.70;;
56680;SDS011;42558;52.388;13.390;2023-05-07T09:13:55;9.69;;;5.51;;
56680;SDS011;42558;52.388;13.390;2023-05-07T09:16:30;8.36;;;5.32;;
56680;SDS011;42558;52.388;13.390;2023-05-07T09:19:00;9.50;;;4.37;;
56680;SDS011;42558;52.388;13.390;2023-05-07T09:21:30;7.60;;;4.75;;
56680;SDS011;42558;52.388;13.390;2023-05-07T09:24:01;8.55;;;4.94;;
56680;SDS011;42558;52.388;13.390;2023-05-07T09:26:30;8.36;;;4.37;;
56680;SDS011;42558;52.388;13.390;2023-05-07T09:29:02;7.22;;;4.18;;
56680;SDS011;42558;52.388;13.390;2023-05-07T09:31:32;7.98;;;4.18;;
56680;SDS011;42558;52.388;13.390;2023-05-07T09:34:05;8.36;;;3.99;;
56680;SDS011;42558;52.388;13.390;2023-05-07T09:36:35;10.26;;;4.75;;
56680;SDS011;42558;52.388;13.390;2023-05-07T09:39:03;9.12;;;4.18;;
56680;SDS011;42558;52.388;13.390;2023-05-07T09:41:32;8.55;;;4.18;;
56680;SDS011;42558;52.388;13.390;2023-05-07T09:44:01;9.50;;;4.56;;
56680;SDS011;42558;52.388;13.390;2023-05-07T09:46:30;8.17;;;3.99;;
56680;SDS011;42558;52.388;13.390;2023-05-07T09:49:02;9.12;;;3.99;;
56680;SDS011;42558;52.388;13.390;2023-05-07T09:51:42;6.65;;;3.99;;
56680;SDS011;42558;52.388;13.390;2023-05-07T09:54:16;8.55;;;3.99;;
56680;SDS011;42558;52.388;13.390;2023-05-07T09:56:48;8.93;;;3.99;;
56680;SDS011;42558;52.388;13.390;2023-05-07T09:59:20;10.64;;;4.37;;
56680;SDS011;42558;52.388;13.390;2023-05-07T10:01:51;6.84;;;3.61;;
56680;SDS011;42558;52.388;13.390;2023-05-07T10:04:26;6.65;;;3.61;;
56680;SDS011;42558;52.388;13.390;2023-05-07T10:06:57;6.84;;;3.42;;
56680;SDS011;42558;52.388;13.390;2023-05-07T10:09:28;7.03;;;3.99;;
56680;SDS011;42558;52.388;13.390;2023-05-07T10:12:00;7.22;;;3.99;;
56680;SDS011;42558;52.388;13.390;2023-05-07T10:14:30;8.55;;;3.80;;
56680;SDS011;42558;52.388;13.390;2023-05-07T10:16:59;10.07;;;4.56;;
56680;SDS011;42558;52.388;13.390;2023-05-07T10:19:27;6.84;;;3.42;;
56680;SDS011;42558;52.388;13.390;2023-05-07T10:22:06;7.03;;;3.61;;
56680;SDS011;42558;52.388;13.390;2023-05-07T10:24:37;6.84;;;3.42;;
56680;SDS011;42558;52.388;13.390;2023-05-07T10:27:09;6.65;;;3.80;;
56680;SDS011;42558;52.388;13.390;2023-05-07T10:32:39;6.08;;;3.23;;
56680;SDS011;42558;52.388;13.390;2023-05-07T10:35:21;7.79;;;3.99;;
56680;SDS011;42558;52.388;13.390;2023-05-07T10:37:55;6.65;;;3.80;;
56680;SDS011;42558;52.388;13.390;2023-05-07T10:40:25;9.12;;;3.61;;
56680;SDS011;42558;52.388;13.390;2023-05-07T10:43:00;6.84;;;3.80;;
56680;SDS011;42558;52.388;13.390;2023-05-07T10:45:32;7.22;;;3.80;;
56680;SDS011;42558;52.388;13.390;2023-05-07T10:51:19;8.36;;;3.99;;
56680;SDS011;42558;52.388;13.390;2023-05-07T10:56:40;8.17;;;3.61;;
56680;SDS011;42558;52.388;13.390;2023-05-07T11:02:02;6.65;;;3.80;;
56680;SDS011;42558;52.388;13.390;2023-05-07T11:04:34;7.79;;;3.61;;
56680;SDS011;42558;52.388;13.390;2023-05-07T11:17:56;7.60;;;4.18;;
56680;SDS011;42558;52.388;13.390;2023-05-07T11:20:44;6.08;;;3.42;;
56680;SDS011;42558;52.388;13.390;2023-05-07T11:26:04;7.98;;;3.42;;
56680;SDS011;42558;52.388;13.390;2023-05-07T11:28:42;6.27;;;3.61;;
56680;SDS011;42558;52.388;13.390;2023-05-07T11:31:13;6.27;;;3.61;;
56680;SDS011;42558;52.388;13.390;2023-05-07T11:33:43;7.22;;;3.80;;
56680;SDS011;42558;52.388;13.390;2023-05-07T11:36:14;7.60;;;3.99;;
56680;SDS011;42558;52.388;13.390;2023-05-07T11:38:44;7.22;;;4.18;;
56680;SDS011;42558;52.388;13.390;2023-05-07T11:41:16;6.46;;;3.42;;
56680;SDS011;42558;52.388;13.390;2023-05-07T11:43:54;7.79;;;3.42;;
56680;SDS011;42558;52.388;13.390;2023-05-07T11:46:28;6.84;;;4.18;;
56680;SDS011;42558;52.388;13.390;2023-05-07T11:49:00;8.17;;;3.99;;
56680;SDS011;42558;52.388;13.390;2023-05-07T11:51:30;7.79;;;3.99;;
56680;SDS011;42558;52.388;13.390;2023-05-07T11:54:00;7.03;;;3.99;;
56680;SDS011;42558;52.388;13.390;2023-05-07T11:56:28;7.03;;;3.99;;
56680;SDS011;42558;52.388;13.390;2023-05-07T11:58:58;8.55;;;4.18;;
56680;SDS011;42558;52.388;13.390;2023-05-07T12:01:28;9.31;;;3.99;;
56680;SDS011;42558;52.388;13.390;2023-05-07T12:03:57;6.08;;;3.23;;
56680;SDS011;42558;52.388;13.390;2023-05-07T12:06:27;9.31;;;4.37;;
56680;SDS011;42558;52.388;13.390;2023-05-07T12:08:57;7.03;;;3.80;;
56680;SDS011;42558;52.388;13.390;2023-05-07T12:11:27;8.17;;;4.18;;
56680;SDS011;42558;52.388;13.390;2023-05-07T12:13:56;6.84;;;3.61;;
56680;SDS011;42558;52.388;13.390;2023-05-07T12:16:27;6.84;;;3.61;;
56680;SDS011;42558;52.388;13.390;2023-05-07T12:18:55;6.46;;;3.80;;
56680;SDS011;42558;52.388;13.390;2023-05-07T12:21:25;6.46;;;3.61;;
56680;SDS011;42558;52.388;13.390;2023-05-07T12:23:56;7.22;;;3.61;;
56680;SDS011;42558;52.388;13.390;2023-05-07T12:26:26;7.60;;;3.80;;
56680;SDS011;42558;52.388;13.390;2023-05-07T12:28:57;6.46;;;3.80;;
56680;SDS011;42558;52.388;13.390;2023-05-07T12:31:26;7.41;;;3.61;;
56680;SDS011;42558;52.388;13.390;2023-05-07T12:33:56;6.46;;;3.80;;
56680;SDS011;42558;52.388;13.390;2023-05-07T12:36:39;8.17;;;3.61;;
56680;SDS011;42558;52.388;13.390;2023-05-07T12:39:09;10.26;;;4.18;;
56680;SDS011;42558;52.388;13.390;2023-05-07T12:41:55;7.79;;;3.42;;
56680;SDS011;42558;52.388;13.390;2023-05-07T12:44:33;7.79;;;3.23;;
56680;SDS011;42558;52.388;13.390;2023-05-07T12:47:03;7.79;;;3.80;;
56680;SDS011;42558;52.388;13.390;2023-05-07T12:49:34;7.41;;;3.80;;
56680;SDS011;42558;52.388;13.390;2023-05-07T12:52:07;7.98;;;3.99;;
56680;SDS011;42558;52.388;13.390;2023-05-07T12:54:37;6.08;;;3.04;;
56680;SDS011;42558;52.388;13.390;2023-05-07T12:57:09;6.84;;;3.80;;
56680;SDS011;42558;52.388;13.390;2023-05-07T12:59:41;8.17;;;3.61;;
56680;SDS011;42558;52.388;13.390;2023-05-07T13:02:11;7.41;;;3.99;;
56680;SDS011;42558;52.388;13.390;2023-05-07T13:04:41;7.03;;;3.23;;
56680;SDS011;42558;52.388;13.390;2023-05-07T13:07:11;8.74;;;3.61;;
56680;SDS011;42558;52.388;13.390;2023-05-07T13:09:41;6.84;;;3.61;;
56680;SDS011;42558;52.388;13.390;2023-05-07T13:12:12;8.36;;;3.61;;
56680;SDS011;42558;52.388;13.390;2023-05-07T13:14:42;6.84;;;3.04;;
56680;SDS011;42558;52.388;13.390;2023-05-07T13:17:10;7.41;;;3.80;;
56680;SDS011;42558;52.388;13.390;2023-05-07T13:19:37;6.46;;;3.04;;
56680;SDS011;42558;52.388;13.390;2023-05-07T13:22:07;7.41;;;4.18;;
56680;SDS011;42558;52.388;13.390;2023-05-07T13:24:36;6.46;;;3.42;;
56680;SDS011;42558;52.388;13.390;2023-05-07T13:27:06;6.65;;;3.80;;
56680;SDS011;42558;52.388;13.390;2023-05-07T13:29:36;6.27;;;3.61;;
56680;SDS011;42558;52.388;13.390;2023-05-07T13:32:06;6.27;;;3.61;;
56680;SDS011;42558;52.388;13.390;2023-05-07T13:34:36;8.93;;;4.18;;
56680;SDS011;42558;52.388;13.390;2023-05-07T13:37:06;7.41;;;3.99;;
56680;SDS011;42558;52.388;13.390;2023-05-07T13:39:39;7.98;;;4.18;;
56680;SDS011;42558;52.388;13.390;2023-05-07T13:42:11;7.41;;;3.99;;
56680;SDS011;42558;52.388;13.390;2023-05-07T13:44:44;7.22;;;4.56;;
56680;SDS011;42558;52.388;13.390;2023-05-07T13:47:13;7.60;;;4.18;;
56680;SDS011;42558;52.388;13.390;2023-05-07T13:49:43;7.41;;;3.80;;
56680;SDS011;42558;52.388;13.390;2023-05-07T13:52:12;6.84;;;3.80;;
56680;SDS011;42558;52.388;13.390;2023-05-07T13:54:42;6.46;;;3.80;;
56680;SDS011;42558;52.388;13.390;2023-05-07T13:57:12;6.65;;;3.42;;
56680;SDS011;42558;52.388;13.390;2023-05-07T13:59:42;7.79;;;3.80;;
56680;SDS011;42558;52.388;13.390;2023-05-07T14:02:12;9.50;;;3.42;;
56680;SDS011;42558;52.388;13.390;2023-05-07T14:04:42;7.41;;;3.61;;
56680;SDS011;42558;52.388;13.390;2023-05-07T14:07:12;6.08;;;3.23;;
56680;SDS011;42558;52.388;13.390;2023-05-07T14:09:42;7.41;;;3.80;;
56680;SDS011;42558;52.388;13.390;2023-05-07T14:12:13;8.55;;;3.61;;
56680;SDS011;42558;52.388;13.390;2023-05-07T14:14:44;6.46;;;3.42;;
56680;SDS011;42558;52.388;13.390;2023-05-07T14:17:17;7.41;;;3.23;;
56680;SDS011;42558;52.388;13.390;2023-05-07T14:19:47;7.60;;;3.42;;
56680;SDS011;42558;52.388;13.390;2023-05-07T14:22:17;6.65;;;3.80;;
56680;SDS011;42558;52.388;13.390;2023-05-07T14:24:47;7.22;;;3.42;;
56680;SDS011;42558;52.388;13.390;2023-05-07T14:27:34;7.79;;;3.80;;
56680;SDS011;42558;52.388;13.390;2023-05-07T14:30:04;7.22;;;3.99;;
56680;SDS011;42558;52.388;13.390;2023-05-07T14:32:33;7.79;;;3.61;;
56680;SDS011;42558;52.388;13.390;2023-05-07T14:35:04;8.36;;;3.61;;
56680;SDS011;42558;52.388;13.390;2023-05-07T14:37:34;6.84;;;3.99;;
56680;SDS011;42558;52.388;13.390;2023-05-07T14:40:05;6.46;;;3.99;;
56680;SDS011;42558;52.388;13.390;2023-05-07T14:42:35;8.74;;;3.99;;
56680;SDS011;42558;52.388;13.390;2023-05-07T14:45:06;9.50;;;3.80;;
56680;SDS011;42558;52.388;13.390;2023-05-07T14:47:36;7.22;;;3.61;;
56680;SDS011;42558;52.388;13.390;2023-05-07T14:50:07;7.41;;;4.56;;
56680;SDS011;42558;52.388;13.390;2023-05-07T14:52:37;6.65;;;3.80;;
56680;SDS011;42558;52.388;13.390;2023-05-07T14:55:07;7.22;;;3.80;;
56680;SDS011;42558;52.388;13.390;2023-05-07T14:57:38;8.55;;;4.18;;
56680;SDS011;42558;52.388;13.390;2023-05-07T15:00:08;7.03;;;3.99;;
56680;SDS011;42558;52.388;13.390;2023-05-07T15:02:39;7.41;;;3.61;;